Corpus Christi, TX

8:26 PM CDT on June 23, 2017 (GMT -0500)
Corpus Christi International | | Change Station
Active Advisory: Coastal Hazard Statement Active Notice: Coastal Hazard Statement

Elev 43 ft 27.77 °N, 97.50 °W | Updated 35 minutes ago

Mostly Cloudy
Mostly Cloudy
87 °F
Feels Like 100 °F
N
15
Wind Variable Wind from SE
Gusts 22 mph

Today
High -- | Low -- °F
--% Chance of Precip.
Yesterday
High -- | Low -- °F
Precip. -- in
Pressure 29.77 in
Visibility 10.0 miles
Clouds Scattered Clouds 1900 ft
Scattered Clouds 17000 ft
Mostly Cloudy 25000 ft
Heat Index 100 °F
Dew Point 78 °F
Humidity 74%
Rainfall 0.00 in
Snow Depth Not available.
6:35 AM 8:29 PM
Waning Crescent, 0% visible
METAR KCRP 240051Z 14013G19KT 10SM SCT019 SCT170 BKN250 31/26 A2977 RMK AO2 SLP081 T03060256 $
Pressure 29.77 in
Visibility 10.0 miles
Clouds Scattered Clouds 1900 ft
Scattered Clouds 17000 ft
Mostly Cloudy 25000 ft
Heat Index 100 °F
Dew Point 78 °F
Humidity 74%
Rainfall 0.00 in
Snow Depth Not available.
6:35 AM 8:29 PM
Waning Crescent, 0% visible
METAR KCRP 240051Z 14013G19KT 10SM SCT019 SCT170 BKN250 31/26 A2977 RMK AO2 SLP081 T03060256 $

Get Your Daily Forecast Email!

Thanks for signing up!

Be on the lookout for a verification email in your inbox.

You'll start receiving severe weather alerts in your inbox..

×

10-Day Weather Forecast

Almanac

Astronomy

Jun. 23, 2017 Rise Set
Actual Time
Civil Twilight
Nautical Twilight
Astronomical Twilight
Moon
Length of Visible Light
Length of Day
Tomorrow will be .
, % of the Moon is Illuminated

Today's Extremes

State Highs State Lows

Community

WunderPhotos

Category 6

Welcome to Category 6. This is the collective home for Weather Underground's featured writeups by Dr. Jeff Masters (right), Bob Henson (left), Chris Burt, and other regular contributors.

Nearby

Air Quality

  Air Quality AQ Index Pollutant
Not available.

Snow Depth

Station Depth Elevation

Earthquake Activity

City Distance Mag. Time & Date
Minimum magnitude displayed is 2.5.

Coastal Water Temperatures

Place Temperature

Stations

Nearby Weather Stations

Station Location Temp. Windchill Dew Point Humidity Wind Precip. Elev Updated Type
                   

Watches & Warnings

Coastal Hazard Statement
Issued: 3:30 PM CDT Jun. 23, 2017 – National Weather Service

... High rip current risk remains in effect until 9 PM CDT this
evening...

* timing... through the early evening hours.

* Impacts... strong and potentially life threatening rip currents
will occur along Gulf facing beaches of the middle Texas
coast.

Precautionary/preparedness actions...

Swim near a lifeguard. If caught in a rip current, relax and
float. Don't swim against the current. If able, swim in a
direction following the shoreline. If unable to escape, face the
shore and call or wave for help.